createdAt,value
2022-12-20T00:00:02.924Z,91.0
2022-12-20T00:05:01.848Z,92.9
2022-12-20T00:10:07.838Z,97.7
2022-12-20T00:20:01.781Z,106.2
2022-12-20T00:25:01.839Z,101.0
2022-12-20T00:35:02.800Z,90.2
2022-12-20T00:40:01.893Z,86.6
2022-12-20T00:50:01.874Z,78.4
2022-12-20T00:55:01.863Z,88.0
2022-12-20T01:00:02.207Z,102.9
2022-12-20T01:05:02.094Z,119.9
2022-12-20T01:10:01.823Z,141.2
2022-12-20T01:15:02.047Z,167.9
2022-12-20T01:20:02.053Z,183.4
2022-12-20T01:25:02.130Z,189.6
2022-12-20T01:35:02.207Z,179.7
2022-12-20T01:40:01.760Z,185.3
2022-12-20T01:50:01.790Z,177.5
2022-12-20T01:55:02.860Z,182.3
2022-12-20T02:00:01.763Z,186.6
2022-12-20T02:05:01.890Z,177.0
2022-12-20T02:35:01.355Z,99.6
2022-12-20T02:40:01.153Z,107.6
2022-12-20T02:50:01.102Z,116.1
2022-12-20T02:55:01.248Z,118.7
2022-12-20T03:00:01.104Z,123.2
2022-12-20T03:05:01.231Z,120.9
2022-12-20T03:10:01.188Z,123.0
2022-12-20T03:20:07.170Z,114.5
2022-12-20T03:25:06.270Z,110.6
2022-12-20T03:30:01.362Z,113.2
2022-12-20T03:35:06.205Z,116.5
2022-12-20T03:40:01.129Z,117.6
2022-12-20T03:45:01.555Z,117.4
2022-12-20T03:50:01.355Z,119.4
2022-12-20T03:55:01.690Z,119.6
2022-12-20T04:00:01.099Z,119.8
2022-12-20T04:05:01.534Z,122.1
2022-12-20T04:10:06.774Z,124.3
2022-12-20T04:20:01.141Z,121.8
2022-12-20T04:25:01.577Z,119.8
2022-12-20T04:30:01.105Z,120.1
2022-12-20T04:35:01.578Z,118.4
2022-12-20T04:40:01.107Z,116.0
2022-12-20T04:45:01.239Z,121.8
2022-12-20T04:50:01.456Z,124.2
2022-12-20T04:55:01.574Z,122.0
2022-12-20T05:00:01.409Z,124.3
2022-12-20T05:05:01.766Z,127.9
2022-12-20T05:10:01.163Z,128.8
2022-12-20T05:15:01.893Z,127.2
2022-12-20T05:20:01.203Z,128.2
2022-12-20T05:25:01.705Z,126.3
2022-12-20T05:30:01.190Z,126.0
2022-12-20T05:35:01.217Z,120.9
2022-12-20T05:40:06.340Z,118.5
2022-12-20T05:50:01.244Z,107.8
2022-12-20T05:55:01.341Z,98.4
2022-12-20T06:00:01.063Z,92.8
2022-12-20T06:05:01.189Z,84.5
2022-12-20T06:10:01.458Z,80.0
2022-12-20T06:15:01.570Z,68.4
2022-12-20T06:20:01.567Z,65.8
2022-12-20T06:25:01.682Z,61.8
2022-12-20T06:30:01.409Z,61.0
2022-12-20T06:35:02.311Z,60.8
2022-12-20T06:40:01.153Z,66.6
2022-12-20T06:45:01.197Z,67.2
2022-12-20T06:50:01.222Z,71.2
2022-12-20T06:55:01.357Z,70.8
2022-12-20T07:05:01.199Z,69.8
2022-12-20T07:10:01.405Z,69.8
2022-12-20T07:15:01.304Z,68.5
2022-12-20T07:20:01.125Z,71.3
2022-12-20T07:25:01.141Z,69.5
2022-12-20T07:30:01.171Z,69.6
2022-12-20T07:35:01.231Z,69.5
2022-12-20T07:40:01.421Z,68.7
2022-12-20T07:45:01.265Z,65.3
2022-12-20T07:50:01.177Z,72.5
2022-12-20T07:55:01.269Z,76.8
2022-12-20T08:05:01.784Z,85.6
2022-12-20T08:10:01.273Z,90.6
2022-12-20T08:15:01.336Z,88.6
2022-12-20T08:20:01.129Z,87.2
2022-12-20T08:25:01.284Z,86.8
2022-12-20T08:30:01.157Z,82.8
2022-12-20T08:35:01.257Z,80.2
2022-12-20T08:45:01.293Z,78.7
2022-12-20T08:50:01.165Z,74.5
2022-12-20T08:55:05.564Z,75.4
2022-12-20T09:05:01.142Z,66.0
2022-12-20T09:10:01.200Z,59.6
2022-12-20T09:20:01.141Z,56.0
2022-12-20T09:25:04.764Z,57.3
2022-12-20T09:35:01.515Z,60.6
2022-12-20T09:40:01.359Z,64.4
2022-12-20T09:50:01.277Z,64.9
2022-12-20T09:55:02.771Z,67.1
2022-12-20T10:05:06.934Z,62.6
2022-12-20T10:10:01.135Z,59.1
2022-12-20T10:55:01.543Z,50.8
2022-12-20T11:00:01.768Z,50.9
2022-12-20T11:05:01.927Z,52.1
2022-12-20T11:45:10.488Z,50.6
2022-12-20T12:05:03.270Z,42.6
2022-12-20T12:10:01.838Z,46.4
2022-12-20T12:20:02.774Z,52.7
2022-12-20T12:25:06.943Z,51.3
2022-12-20T12:30:01.855Z,52.6
2022-12-20T12:35:02.191Z,52.2
2022-12-20T12:55:02.014Z,53.4
2022-12-20T13:00:01.786Z,52.1
2022-12-20T13:05:01.699Z,49.7
2022-12-20T13:25:02.320Z,57.0
2022-12-20T13:50:02.074Z,48.9
2022-12-20T14:05:02.785Z,46.6
2022-12-20T14:10:02.112Z,45.8
2022-12-20T14:20:02.001Z,48.2
2022-12-20T14:35:08.089Z,47.2
2022-12-20T14:40:01.500Z,48.5
2022-12-20T14:55:11.877Z,43.6
2022-12-20T15:05:03.387Z,65.0
2022-12-20T15:10:03.524Z,61.7
2022-12-20T15:20:01.931Z,62.1
2022-12-20T15:25:02.047Z,52.8
2022-12-20T15:35:02.019Z,55.4
2022-12-20T15:40:02.024Z,55.8
2022-12-20T15:50:02.248Z,61.4
2022-12-20T15:55:02.173Z,62.0
2022-12-20T16:05:02.240Z,62.1
2022-12-20T16:10:02.603Z,59.6
2022-12-20T16:20:01.919Z,58.5
2022-12-20T16:25:02.772Z,57.2
2022-12-20T16:35:02.007Z,54.7
2022-12-20T16:40:03.318Z,52.1
2022-12-20T16:50:02.214Z,48.6
2022-12-20T16:55:02.264Z,45.6
2022-12-20T17:00:02.211Z,44.3
2022-12-20T17:05:02.110Z,44.0
2022-12-20T17:15:07.020Z,44.4
2022-12-20T17:20:02.995Z,44.1
2022-12-20T17:25:02.708Z,45.1
2022-12-20T17:35:02.586Z,46.5
2022-12-20T17:40:02.419Z,46.8
2022-12-20T17:50:07.389Z,46.6
2022-12-20T17:55:03.178Z,46.9
2022-12-20T18:00:02.583Z,48.1
2022-12-20T18:05:02.006Z,48.2
2022-12-20T18:10:02.680Z,48.3
2022-12-20T18:15:02.457Z,50.1
2022-12-20T18:20:02.244Z,49.7
2022-12-20T18:25:02.652Z,50.7
2022-12-20T18:35:05.586Z,49.2
2022-12-20T18:40:01.894Z,47.6
2022-12-20T18:50:01.762Z,45.0
2022-12-20T18:55:02.223Z,45.5
2022-12-20T19:00:02.157Z,45.2
2022-12-20T19:05:02.270Z,45.0
2022-12-20T19:10:03.920Z,45.0
2022-12-20T19:15:02.660Z,42.9
2022-12-20T19:25:03.468Z,42.8
2022-12-20T19:45:02.300Z,40.0
2022-12-20T19:50:02.168Z,41.5
2022-12-20T19:55:05.620Z,42.1
2022-12-20T20:00:03.172Z,42.1
2022-12-20T20:10:02.327Z,42.6
2022-12-20T20:20:06.851Z,50.8
2022-12-20T20:25:01.896Z,52.6
2022-12-20T20:30:02.186Z,54.7
2022-12-20T20:35:02.693Z,57.3
2022-12-20T20:40:01.889Z,61.8
2022-12-20T20:50:02.839Z,53.0
2022-12-20T20:55:02.951Z,52.2
2022-12-20T21:00:02.583Z,49.9
2022-12-20T21:10:04.953Z,58.8
2022-12-20T21:20:01.918Z,59.4
2022-12-20T21:25:01.943Z,61.2
2022-12-20T21:30:02.136Z,49.5
2022-12-20T21:35:03.289Z,52.4
2022-12-20T21:40:01.824Z,53.1
2022-12-20T21:55:02.268Z,60.6
2022-12-20T22:00:02.095Z,65.7
2022-12-20T22:10:07.096Z,75.5
2022-12-20T22:20:01.812Z,76.2
2022-12-20T22:25:01.864Z,70.7
2022-12-20T22:35:01.895Z,65.6
2022-12-20T22:40:02.083Z,60.7
2022-12-20T22:45:02.116Z,60.9
2022-12-20T22:50:01.767Z,60.4
2022-12-20T22:55:01.812Z,58.9
2022-12-20T23:00:01.979Z,59.6
2022-12-20T23:05:02.176Z,62.4
2022-12-20T23:10:01.798Z,66.3
2022-12-20T23:20:02.034Z,75.1
2022-12-20T23:25:07.270Z,74.4
2022-12-20T23:35:13.011Z,69.0
2022-12-20T23:40:01.837Z,65.4
2022-12-20T23:50:01.690Z,63.2
2022-12-20T23:55:02.097Z,66.9
